sensor_id;sensor_type;location;lat;lon;timestamp;pressure;altitude;pressure_sealevel;temperature;humidity
39275;BME280;24980;48.874;2.332;2023-05-23T00:01:42;101539.38;;;24.85;43.68
39275;BME280;24980;48.874;2.332;2023-05-23T00:04:12;101540.69;;;24.84;43.68
39275;BME280;24980;48.874;2.332;2023-05-23T00:06:43;101544.84;;;24.83;43.68
39275;BME280;24980;48.874;2.332;2023-05-23T00:09:13;101544.34;;;24.82;43.69
39275;BME280;24980;48.874;2.332;2023-05-23T00:11:44;101538.67;;;24.81;43.68
39275;BME280;24980;48.874;2.332;2023-05-23T00:14:14;101539.94;;;24.80;43.68
39275;BME280;24980;48.874;2.332;2023-05-23T00:16:46;101534.98;;;24.78;43.68
39275;BME280;24980;48.874;2.332;2023-05-23T00:19:15;101539.14;;;24.78;43.68
39275;BME280;24980;48.874;2.332;2023-05-23T00:21:46;101530.83;;;24.77;43.69
39275;BME280;24980;48.874;2.332;2023-05-23T00:24:16;101534.39;;;24.77;43.70
39275;BME280;24980;48.874;2.332;2023-05-23T00:26:50;101530.84;;;24.76;43.70
39275;BME280;24980;48.874;2.332;2023-05-23T00:29:17;101533.80;;;24.76;43.72
39275;BME280;24980;48.874;2.332;2023-05-23T00:31:48;101535.12;;;24.74;43.72
39275;BME280;24980;48.874;2.332;2023-05-23T00:34:18;101537.91;;;24.74;43.71
39275;BME280;24980;48.874;2.332;2023-05-23T00:36:48;101540.80;;;24.73;43.71
39275;BME280;24980;48.874;2.332;2023-05-23T00:39:18;101546.31;;;24.73;43.69
39275;BME280;24980;48.874;2.332;2023-05-23T00:41:49;101542.95;;;24.72;43.68
39275;BME280;24980;48.874;2.332;2023-05-23T00:44:20;101543.64;;;24.71;43.68
39275;BME280;24980;48.874;2.332;2023-05-23T00:46:54;101542.97;;;24.70;43.67
39275;BME280;24980;48.874;2.332;2023-05-23T00:49:20;101546.65;;;24.69;43.65
39275;BME280;24980;48.874;2.332;2023-05-23T00:51:51;101545.20;;;24.68;43.63
39275;BME280;24980;48.874;2.332;2023-05-23T00:54:27;101537.58;;;24.67;43.62
39275;BME280;24980;48.874;2.332;2023-05-23T00:56:52;101531.48;;;24.66;43.61
39275;BME280;24980;48.874;2.332;2023-05-23T00:59:24;101536.35;;;24.65;43.61
39275;BME280;24980;48.874;2.332;2023-05-23T01:01:58;101533.89;;;24.64;43.60
39275;BME280;24980;48.874;2.332;2023-05-23T01:04:22;101526.09;;;24.63;43.58
39275;BME280;24980;48.874;2.332;2023-05-23T01:06:53;101530.25;;;24.63;43.58
39275;BME280;24980;48.874;2.332;2023-05-23T01:09:24;101525.12;;;24.62;43.58
39275;BME280;24980;48.874;2.332;2023-05-23T01:17:02;101531.91;;;24.61;43.56
39275;BME280;24980;48.874;2.332;2023-05-23T01:22:00;101536.48;;;24.60;43.55
39275;BME280;24980;48.874;2.332;2023-05-23T01:24:46;101535.12;;;24.60;43.54
39275;BME280;24980;48.874;2.332;2023-05-23T01:27:07;101537.92;;;24.60;43.54
39275;BME280;24980;48.874;2.332;2023-05-23T01:29:32;101537.25;;;24.60;43.56
39275;BME280;24980;48.874;2.332;2023-05-23T01:32:04;101541.06;;;24.60;43.60
39275;BME280;24980;48.874;2.332;2023-05-23T01:34:36;101543.01;;;24.61;43.65
39275;BME280;24980;48.874;2.332;2023-05-23T01:37:11;101543.27;;;24.62;43.69
39275;BME280;24980;48.874;2.332;2023-05-23T01:39:37;101546.86;;;24.64;43.70
39275;BME280;24980;48.874;2.332;2023-05-23T01:42:00;101546.10;;;24.63;43.71
39275;BME280;24980;48.874;2.332;2023-05-23T01:44:30;101546.53;;;24.64;43.68
39275;BME280;24980;48.874;2.332;2023-05-23T01:47:02;101544.83;;;24.64;43.66
39275;BME280;24980;48.874;2.332;2023-05-23T01:49:33;101545.59;;;24.64;43.63
39275;BME280;24980;48.874;2.332;2023-05-23T01:52:02;101550.59;;;24.64;43.61
39275;BME280;24980;48.874;2.332;2023-05-23T01:54:36;101553.81;;;24.64;43.57
39275;BME280;24980;48.874;2.332;2023-05-23T01:57:04;101554.75;;;24.63;43.55
39275;BME280;24980;48.874;2.332;2023-05-23T01:59:39;101551.10;;;24.64;43.53
39275;BME280;24980;48.874;2.332;2023-05-23T02:02:05;101548.47;;;24.64;43.49
39275;BME280;24980;48.874;2.332;2023-05-23T02:04:35;101548.98;;;24.64;43.48
39275;BME280;24980;48.874;2.332;2023-05-23T02:07:10;101548.22;;;24.63;43.46
39275;BME280;24980;48.874;2.332;2023-05-23T02:09:41;101547.55;;;24.64;43.44
39275;BME280;24980;48.874;2.332;2023-05-23T02:12:06;101546.36;;;24.63;43.41
39275;BME280;24980;48.874;2.332;2023-05-23T02:14:41;101549.33;;;24.64;43.41
39275;BME280;24980;48.874;2.332;2023-05-23T02:17:10;101557.29;;;24.64;43.41
39275;BME280;24980;48.874;2.332;2023-05-23T02:19:37;101559.66;;;24.64;43.41
39275;BME280;24980;48.874;2.332;2023-05-23T02:22:10;101551.45;;;24.64;43.40
39275;BME280;24980;48.874;2.332;2023-05-23T02:24:38;101551.70;;;24.64;43.40
39275;BME280;24980;48.874;2.332;2023-05-23T02:27:09;101554.06;;;24.65;43.39
39275;BME280;24980;48.874;2.332;2023-05-23T02:29:40;101553.98;;;24.66;43.39
39275;BME280;24980;48.874;2.332;2023-05-23T02:32:09;101548.64;;;24.65;43.39
39275;BME280;24980;48.874;2.332;2023-05-23T02:34:39;101555.22;;;24.66;43.38
39275;BME280;24980;48.874;2.332;2023-05-23T02:37:09;101559.57;;;24.66;43.37
39275;BME280;24980;48.874;2.332;2023-05-23T02:39:39;101562.76;;;24.67;43.36
39275;BME280;24980;48.874;2.332;2023-05-23T02:42:09;101558.69;;;24.67;43.35
39275;BME280;24980;48.874;2.332;2023-05-23T02:44:39;101551.91;;;24.68;43.35
39275;BME280;24980;48.874;2.332;2023-05-23T02:47:09;101558.34;;;24.68;43.36
39275;BME280;24980;48.874;2.332;2023-05-23T02:49:39;101556.53;;;24.70;43.38
39275;BME280;24980;48.874;2.332;2023-05-23T02:52:11;101553.14;;;24.70;43.41
39275;BME280;24980;48.874;2.332;2023-05-23T02:54:47;101556.69;;;24.71;43.46
39275;BME280;24980;48.874;2.332;2023-05-23T02:57:10;101563.81;;;24.72;43.49
39275;BME280;24980;48.874;2.332;2023-05-23T02:59:42;101563.78;;;24.73;43.54
39275;BME280;24980;48.874;2.332;2023-05-23T03:02:11;101560.64;;;24.73;43.56
39275;BME280;24980;48.874;2.332;2023-05-23T03:04:41;101567.92;;;24.74;43.57
39275;BME280;24980;48.874;2.332;2023-05-23T03:07:11;101562.75;;;24.74;43.56
39275;BME280;24980;48.874;2.332;2023-05-23T03:09:41;101564.36;;;24.74;43.54
39275;BME280;24980;48.874;2.332;2023-05-23T03:12:11;101566.98;;;24.75;43.52
39275;BME280;24980;48.874;2.332;2023-05-23T03:14:41;101572.16;;;24.75;43.48
39275;BME280;24980;48.874;2.332;2023-05-23T03:17:12;101568.86;;;24.74;43.44
39275;BME280;24980;48.874;2.332;2023-05-23T03:19:42;101570.47;;;24.74;43.40
39275;BME280;24980;48.874;2.332;2023-05-23T03:22:12;101568.86;;;24.74;43.37
39275;BME280;24980;48.874;2.332;2023-05-23T03:24:42;101570.22;;;24.74;43.33
39275;BME280;24980;48.874;2.332;2023-05-23T03:27:23;101561.14;;;24.73;43.30
39275;BME280;24980;48.874;2.332;2023-05-23T03:29:42;101571.58;;;24.74;43.25
39275;BME280;24980;48.874;2.332;2023-05-23T03:32:12;101574.45;;;24.74;43.23
39275;BME280;24980;48.874;2.332;2023-05-23T03:34:44;101577.51;;;24.73;43.19
39275;BME280;24980;48.874;2.332;2023-05-23T03:37:13;101589.80;;;24.73;43.16
39275;BME280;24980;48.874;2.332;2023-05-23T03:39:44;101592.12;;;24.72;43.14
39275;BME280;24980;48.874;2.332;2023-05-23T03:42:13;101590.44;;;24.72;43.13
39275;BME280;24980;48.874;2.332;2023-05-23T03:44:43;101592.80;;;24.72;43.11
39275;BME280;24980;48.874;2.332;2023-05-23T03:47:13;101588.31;;;24.71;43.09
39275;BME280;24980;48.874;2.332;2023-05-23T03:49:43;101587.55;;;24.71;43.07
39275;BME280;24980;48.874;2.332;2023-05-23T03:52:14;101594.59;;;24.71;43.06
39275;BME280;24980;48.874;2.332;2023-05-23T03:54:44;101589.92;;;24.71;43.04
39275;BME280;24980;48.874;2.332;2023-05-23T03:57:14;101599.09;;;24.70;43.03
39275;BME280;24980;48.874;2.332;2023-05-23T03:59:47;101603.06;;;24.70;43.00
39275;BME280;24980;48.874;2.332;2023-05-23T04:02:14;101605.53;;;24.70;42.98
39275;BME280;24980;48.874;2.332;2023-05-23T04:04:44;101598.83;;;24.70;42.96
39275;BME280;24980;48.874;2.332;2023-05-23T04:07:14;101606.45;;;24.71;42.96
39275;BME280;24980;48.874;2.332;2023-05-23T04:09:47;101606.55;;;24.70;42.94
39275;BME280;24980;48.874;2.332;2023-05-23T04:12:15;101601.20;;;24.70;42.92
39275;BME280;24980;48.874;2.332;2023-05-23T04:14:45;101609.94;;;24.70;42.90
39275;BME280;24980;48.874;2.332;2023-05-23T04:17:18;101605.02;;;24.70;42.90
39275;BME280;24980;48.874;2.332;2023-05-23T04:19:46;101609.94;;;24.70;42.89
39275;BME280;24980;48.874;2.332;2023-05-23T04:22:16;101613.83;;;24.71;42.88
39275;BME280;24980;48.874;2.332;2023-05-23T04:24:46;101607.90;;;24.71;42.87
39275;BME280;24980;48.874;2.332;2023-05-23T04:27:21;101608.66;;;24.70;42.87
39275;BME280;24980;48.874;2.332;2023-05-23T04:29:47;101614.00;;;24.71;42.86
39275;BME280;24980;48.874;2.332;2023-05-23T04:32:17;101614.59;;;24.70;42.86
39275;BME280;24980;48.874;2.332;2023-05-23T04:34:47;101615.02;;;24.71;42.85
39275;BME280;24980;48.874;2.332;2023-05-23T04:39:47;101622.23;;;24.70;42.83
39275;BME280;24980;48.874;2.332;2023-05-23T04:42:19;101623.58;;;24.70;42.82
39275;BME280;24980;48.874;2.332;2023-05-23T04:44:48;101625.11;;;24.71;42.82
39275;BME280;24980;48.874;2.332;2023-05-23T04:47:18;101629.09;;;24.72;42.83
39275;BME280;24980;48.874;2.332;2023-05-23T04:49:48;101627.56;;;24.72;42.83
39275;BME280;24980;48.874;2.332;2023-05-23T04:52:18;101627.02;;;24.73;42.84
39275;BME280;24980;48.874;2.332;2023-05-23T04:54:48;101627.53;;;24.74;42.84
39275;BME280;24980;48.874;2.332;2023-05-23T04:57:18;101626.09;;;24.73;42.83
39275;BME280;24980;48.874;2.332;2023-05-23T04:59:48;101620.31;;;24.74;42.83
39275;BME280;24980;48.874;2.332;2023-05-23T05:02:18;101620.66;;;24.75;42.82
39275;BME280;24980;48.874;2.332;2023-05-23T05:04:48;101622.83;;;24.76;42.81
39275;BME280;24980;48.874;2.332;2023-05-23T05:07:18;101625.95;;;24.77;42.78
39275;BME280;24980;48.874;2.332;2023-05-23T05:09:48;101628.41;;;24.78;42.77
39275;BME280;24980;48.874;2.332;2023-05-23T05:12:18;101631.17;;;24.79;42.75
39275;BME280;24980;48.874;2.332;2023-05-23T05:14:49;101627.62;;;24.80;42.76
39275;BME280;24980;48.874;2.332;2023-05-23T05:17:19;101632.53;;;24.81;42.75
39275;BME280;24980;48.874;2.332;2023-05-23T05:19:50;101630.32;;;24.82;42.76
39275;BME280;24980;48.874;2.332;2023-05-23T05:22:20;101637.44;;;24.83;42.75
39275;BME280;24980;48.874;2.332;2023-05-23T05:24:52;101640.06;;;24.84;42.75
39275;BME280;24980;48.874;2.332;2023-05-23T05:27:20;101638.84;;;24.85;42.76
39275;BME280;24980;48.874;2.332;2023-05-23T05:29:50;101638.75;;;24.86;42.78
39275;BME280;24980;48.874;2.332;2023-05-23T05:32:20;101642.73;;;24.87;42.77
39275;BME280;24980;48.874;2.332;2023-05-23T05:34:50;101639.43;;;24.88;42.77
39275;BME280;24980;48.874;2.332;2023-05-23T05:37:21;101640.16;;;24.89;42.77
39275;BME280;24980;48.874;2.332;2023-05-23T05:39:51;101643.12;;;24.90;42.76
39275;BME280;24980;48.874;2.332;2023-05-23T05:42:21;101643.97;;;24.91;42.78
39275;BME280;24980;48.874;2.332;2023-05-23T05:44:51;101642.91;;;24.92;42.79
39275;BME280;24980;48.874;2.332;2023-05-23T05:47:27;101645.80;;;24.92;42.82
39275;BME280;24980;48.874;2.332;2023-05-23T05:52:23;101653.05;;;24.95;42.86
39275;BME280;24980;48.874;2.332;2023-05-23T05:54:55;101651.09;;;24.96;42.87
39275;BME280;24980;48.874;2.332;2023-05-23T05:57:23;101655.33;;;24.97;42.87
39275;BME280;24980;48.874;2.332;2023-05-23T05:59:54;101657.03;;;24.97;42.87
39275;BME280;24980;48.874;2.332;2023-05-23T06:02:24;101665.14;;;24.98;42.86
39275;BME280;24980;48.874;2.332;2023-05-23T06:04:54;101662.50;;;24.99;42.83
39275;BME280;24980;48.874;2.332;2023-05-23T06:07:24;101660.98;;;25.00;42.82
39275;BME280;24980;48.874;2.332;2023-05-23T06:09:57;101662.59;;;25.00;42.82
39275;BME280;24980;48.874;2.332;2023-05-23T06:12:24;101661.91;;;25.00;42.84
39275;BME280;24980;48.874;2.332;2023-05-23T06:14:54;101658.09;;;25.00;42.86
39275;BME280;24980;48.874;2.332;2023-05-23T06:17:25;101663.27;;;25.01;42.86
39275;BME280;24980;48.874;2.332;2023-05-23T06:19:55;101665.39;;;25.05;42.86
39275;BME280;24980;48.874;2.332;2023-05-23T06:22:25;101660.52;;;25.08;42.84
39275;BME280;24980;48.874;2.332;2023-05-23T06:25:00;101658.81;;;25.10;42.85
39275;BME280;24980;48.874;2.332;2023-05-23T06:27:25;101667.03;;;25.11;42.87
39275;BME280;24980;48.874;2.332;2023-05-23T06:29:55;101662.41;;;25.12;42.90
39275;BME280;24980;48.874;2.332;2023-05-23T06:32:35;101671.75;;;25.12;42.91
39275;BME280;24980;48.874;2.332;2023-05-23T06:34:56;101672.94;;;25.13;42.92
39275;BME280;24980;48.874;2.332;2023-05-23T06:37:26;101670.81;;;25.12;42.93
39275;BME280;24980;48.874;2.332;2023-05-23T06:39:56;101666.74;;;25.12;42.92
39275;BME280;24980;48.874;2.332;2023-05-23T06:42:26;101676.16;;;25.13;42.93
39275;BME280;24980;48.874;2.332;2023-05-23T06:44:57;101678.36;;;25.13;42.93
39275;BME280;24980;48.874;2.332;2023-05-23T06:47:26;101683.53;;;25.12;42.93
39275;BME280;24980;48.874;2.332;2023-05-23T06:49:56;101683.23;;;25.10;42.93
39275;BME280;24980;48.874;2.332;2023-05-23T06:52:26;101691.27;;;25.05;42.91
39275;BME280;24980;48.874;2.332;2023-05-23T06:54:56;101686.89;;;24.96;42.94
39275;BME280;24980;48.874;2.332;2023-05-23T06:57:26;101685.31;;;24.86;42.95
39275;BME280;24980;48.874;2.332;2023-05-23T06:59:56;101681.28;;;24.80;42.95
39275;BME280;24980;48.874;2.332;2023-05-23T07:02:26;101688.02;;;24.77;42.92
39275;BME280;24980;48.874;2.332;2023-05-23T07:04:56;101695.27;;;24.74;42.88
39275;BME280;24980;48.874;2.332;2023-05-23T07:07:32;101702.08;;;24.71;42.87
39275;BME280;24980;48.874;2.332;2023-05-23T07:12:27;101707.84;;;24.65;42.85
39275;BME280;24980;48.874;2.332;2023-05-23T07:14:57;101711.81;;;24.64;42.84
39275;BME280;24980;48.874;2.332;2023-05-23T07:17:27;101714.02;;;24.63;42.83
39275;BME280;24980;48.874;2.332;2023-05-23T07:19:57;101722.78;;;24.62;42.80
39275;BME280;24980;48.874;2.332;2023-05-23T07:22:27;101717.20;;;24.59;42.80
39275;BME280;24980;48.874;2.332;2023-05-23T07:24:57;101719.80;;;24.56;42.82
39275;BME280;24980;48.874;2.332;2023-05-23T07:27:28;101718.82;;;24.53;42.83
39275;BME280;24980;48.874;2.332;2023-05-23T07:29:59;101715.01;;;24.50;42.84
39275;BME280;24980;48.874;2.332;2023-05-23T07:32:29;101720.97;;;24.48;42.85
39275;BME280;24980;48.874;2.332;2023-05-23T07:34:59;101725.49;;;24.45;42.87
39275;BME280;24980;48.874;2.332;2023-05-23T07:37:29;101721.77;;;24.44;42.87
39275;BME280;24980;48.874;2.332;2023-05-23T07:40:00;101729.30;;;24.44;42.87
39275;BME280;24980;48.874;2.332;2023-05-23T07:42:32;101725.61;;;24.43;42.86
39275;BME280;24980;48.874;2.332;2023-05-23T07:47:31;101735.64;;;24.38;42.87
39275;BME280;24980;48.874;2.332;2023-05-23T07:50:01;101740.12;;;24.38;42.86
39275;BME280;24980;48.874;2.332;2023-05-23T07:52:31;101735.59;;;24.36;42.86
39275;BME280;24980;48.874;2.332;2023-05-23T07:55:01;101735.50;;;24.34;42.88
39275;BME280;24980;48.874;2.332;2023-05-23T07:57:31;101735.55;;;24.38;42.86
39275;BME280;24980;48.874;2.332;2023-05-23T08:00:01;101737.39;;;24.43;42.88
39275;BME280;24980;48.874;2.332;2023-05-23T08:02:32;101736.31;;;24.47;42.92
39275;BME280;24980;48.874;2.332;2023-05-23T08:05:02;101737.38;;;24.51;42.96
39275;BME280;24980;48.874;2.332;2023-05-23T08:07:32;101745.09;;;24.53;43.00
39275;BME280;24980;48.874;2.332;2023-05-23T08:10:02;101754.30;;;24.55;43.04
39275;BME280;24980;48.874;2.332;2023-05-23T08:12:32;101741.75;;;24.56;43.08
39275;BME280;24980;48.874;2.332;2023-05-23T08:15:02;101748.67;;;24.58;43.10
39275;BME280;24980;48.874;2.332;2023-05-23T08:17:32;101747.70;;;24.59;43.13
39275;BME280;24980;48.874;2.332;2023-05-23T08:20:06;101748.98;;;24.60;43.15
39275;BME280;24980;48.874;2.332;2023-05-23T08:22:33;101752.54;;;24.62;43.18
39275;BME280;24980;48.874;2.332;2023-05-23T08:25:03;101749.74;;;24.62;43.21
39275;BME280;24980;48.874;2.332;2023-05-23T08:27:34;101746.15;;;24.63;43.23
39275;BME280;24980;48.874;2.332;2023-05-23T08:30:06;101745.81;;;24.63;43.24
39275;BME280;24980;48.874;2.332;2023-05-23T08:32:34;101752.17;;;24.63;43.27
39275;BME280;24980;48.874;2.332;2023-05-23T08:35:05;101750.05;;;24.63;43.28
39275;BME280;24980;48.874;2.332;2023-05-23T08:37:36;101753.27;;;24.63;43.31
39275;BME280;24980;48.874;2.332;2023-05-23T08:40:08;101754.97;;;24.63;43.34
39275;BME280;24980;48.874;2.332;2023-05-23T08:42:35;101754.38;;;24.64;43.36
39275;BME280;24980;48.874;2.332;2023-05-23T08:45:06;101757.34;;;24.64;43.38
39275;BME280;24980;48.874;2.332;2023-05-23T08:47:38;101759.38;;;24.64;43.40
39275;BME280;24980;48.874;2.332;2023-05-23T08:50:12;101758.78;;;24.64;43.43
39275;BME280;24980;48.874;2.332;2023-05-23T08:52:42;101755.05;;;24.64;43.44
39275;BME280;24980;48.874;2.332;2023-05-23T08:55:09;101761.75;;;24.63;43.47
39275;BME280;24980;48.874;2.332;2023-05-23T08:57:39;101761.07;;;24.64;43.48
39275;BME280;24980;48.874;2.332;2023-05-23T09:00:13;101758.44;;;24.64;43.51
39275;BME280;24980;48.874;2.332;2023-05-23T09:02:42;101760.05;;;24.64;43.53
39275;BME280;24980;48.874;2.332;2023-05-23T09:05:09;101758.36;;;24.64;43.54
39275;BME280;24980;48.874;2.332;2023-05-23T09:07:42;101761.66;;;24.65;43.55
39275;BME280;24980;48.874;2.332;2023-05-23T09:10:11;101764.80;;;24.64;43.57
39275;BME280;24980;48.874;2.332;2023-05-23T09:12:41;101771.58;;;24.65;43.58
39275;BME280;24980;48.874;2.332;2023-05-23T09:15:11;101768.36;;;24.64;43.61
39275;BME280;24980;48.874;2.332;2023-05-23T09:17:43;101772.85;;;24.66;43.62
39275;BME280;24980;48.874;2.332;2023-05-23T09:20:26;101773.02;;;24.66;43.63
39275;BME280;24980;48.874;2.332;2023-05-23T09:22:48;101774.09;;;24.66;43.65
39275;BME280;24980;48.874;2.332;2023-05-23T09:25:12;101770.70;;;24.66;43.68
39275;BME280;24980;48.874;2.332;2023-05-23T09:27:43;101766.49;;;24.65;43.70
39275;BME280;24980;48.874;2.332;2023-05-23T09:30:13;101776.63;;;24.66;43.71
39275;BME280;24980;48.874;2.332;2023-05-23T09:32:57;101772.39;;;24.66;43.73
39275;BME280;24980;48.874;2.332;2023-05-23T09:35:14;101771.89;;;24.67;43.73
39275;BME280;24980;48.874;2.332;2023-05-23T09:37:44;101772.73;;;24.66;43.74
39275;BME280;24980;48.874;2.332;2023-05-23T09:40:15;101775.36;;;24.67;43.77
39275;BME280;24980;48.874;2.332;2023-05-23T09:42:46;101770.28;;;24.66;43.78
39275;BME280;24980;48.874;2.332;2023-05-23T09:45:17;101776.30;;;24.66;43.79
39275;BME280;24980;48.874;2.332;2023-05-23T09:47:49;101780.88;;;24.67;43.81
39275;BME280;24980;48.874;2.332;2023-05-23T09:50:21;101781.63;;;24.66;43.83
39275;BME280;24980;48.874;2.332;2023-05-23T09:52:48;101777.56;;;24.66;43.85
39275;BME280;24980;48.874;2.332;2023-05-23T09:55:18;101779.43;;;24.66;43.86
39275;BME280;24980;48.874;2.332;2023-05-23T09:57:52;101783.16;;;24.66;43.87
39275;BME280;24980;48.874;2.332;2023-05-23T10:00:19;101781.05;;;24.66;43.88
39275;BME280;24980;48.874;2.332;2023-05-23T10:03:09;101784.55;;;24.66;43.90
39275;BME280;24980;48.874;2.332;2023-05-23T10:05:33;101782.86;;;24.66;43.90
39275;BME280;24980;48.874;2.332;2023-05-23T10:07:50;101785.23;;;24.65;43.92
39275;BME280;24980;48.874;2.332;2023-05-23T10:10:20;101783.59;;;24.66;43.93
39275;BME280;24980;48.874;2.332;2023-05-23T10:12:54;101783.62;;;24.65;43.95
39275;BME280;24980;48.874;2.332;2023-05-23T10:15:20;101780.73;;;24.65;43.97
39275;BME280;24980;48.874;2.332;2023-05-23T10:18:17;101788.33;;;24.66;43.99
39275;BME280;24980;48.874;2.332;2023-05-23T10:20:25;101790.48;;;24.65;43.99
39275;BME280;24980;48.874;2.332;2023-05-23T10:22:53;101791.25;;;24.65;44.00
39275;BME280;24980;48.874;2.332;2023-05-23T10:25:23;101793.03;;;24.65;44.02
39275;BME280;24980;48.874;2.332;2023-05-23T10:27:57;101789.89;;;24.64;44.05
39275;BME280;24980;48.874;2.332;2023-05-23T10:30:24;101799.47;;;24.64;44.06
39275;BME280;24980;48.874;2.332;2023-05-23T10:32:55;101792.43;;;24.64;44.07
39275;BME280;24980;48.874;2.332;2023-05-23T10:38:08;101798.45;;;24.64;44.09
39275;BME280;24980;48.874;2.332;2023-05-23T10:40:42;101792.86;;;24.63;44.10
39275;BME280;24980;48.874;2.332;2023-05-23T10:43:04;101796.28;;;24.62;44.12
39275;BME280;24980;48.874;2.332;2023-05-23T10:45:39;101793.14;;;24.62;44.13
39275;BME280;24980;48.874;2.332;2023-05-23T10:47:59;101790.01;;;24.62;44.13
39275;BME280;24980;48.874;2.332;2023-05-23T10:50:36;101781.78;;;24.62;44.13
39275;BME280;24980;48.874;2.332;2023-05-23T10:53:02;101786.36;;;24.61;44.15
39275;BME280;24980;48.874;2.332;2023-05-23T10:55:32;101780.52;;;24.61;44.16
39275;BME280;24980;48.874;2.332;2023-05-23T10:58:21;101781.02;;;24.61;44.17
39275;BME280;24980;48.874;2.332;2023-05-23T11:00:29;101778.91;;;24.61;44.18
39275;BME280;24980;48.874;2.332;2023-05-23T11:03:00;101778.22;;;24.61;44.19
39275;BME280;24980;48.874;2.332;2023-05-23T11:05:31;101778.81;;;24.61;44.21
39275;BME280;24980;48.874;2.332;2023-05-23T11:08:11;101775.84;;;24.60;44.22
39275;BME280;24980;48.874;2.332;2023-05-23T11:10:31;101779.07;;;24.60;44.23
39275;BME280;24980;48.874;2.332;2023-05-23T11:13:13;101771.10;;;24.60;44.25
39275;BME280;24980;48.874;2.332;2023-05-23T11:15:41;101777.80;;;24.60;44.26
39275;BME280;24980;48.874;2.332;2023-05-23T11:18:05;101778.81;;;24.60;44.27
39275;BME280;24980;48.874;2.332;2023-05-23T11:20:36;101779.23;;;24.59;44.28
39275;BME280;24980;48.874;2.332;2023-05-23T11:23:07;101775.97;;;24.59;44.28
39275;BME280;24980;48.874;2.332;2023-05-23T11:25:39;101778.25;;;24.58;44.30
39275;BME280;24980;48.874;2.332;2023-05-23T11:28:05;101775.62;;;24.58;44.30
39275;BME280;24980;48.874;2.332;2023-05-23T11:30:35;101771.98;;;24.58;44.31
39275;BME280;24980;48.874;2.332;2023-05-23T11:33:07;101762.91;;;24.57;44.31
39275;BME280;24980;48.874;2.332;2023-05-23T11:35:36;101762.58;;;24.57;44.33
39275;BME280;24980;48.874;2.332;2023-05-23T11:38:07;101764.52;;;24.56;44.34
39275;BME280;24980;48.874;2.332;2023-05-23T11:40:40;101763.28;;;24.56;44.36
39275;BME280;24980;48.874;2.332;2023-05-23T11:43:19;101761.84;;;24.55;44.38
39275;BME280;24980;48.874;2.332;2023-05-23T11:45:37;101761.33;;;24.55;44.39
39275;BME280;24980;48.874;2.332;2023-05-23T11:48:16;101762.09;;;24.56;44.41
39275;BME280;24980;48.874;2.332;2023-05-23T11:50:49;101762.61;;;24.55;44.44
39275;BME280;24980;48.874;2.332;2023-05-23T11:53:07;101766.59;;;24.54;44.46
39275;BME280;24980;48.874;2.332;2023-05-23T11:55:52;101763.80;;;24.54;44.49
39275;BME280;24980;48.874;2.332;2023-05-23T11:58:09;101758.66;;;24.52;44.51
39275;BME280;24980;48.874;2.332;2023-05-23T12:00:44;101760.77;;;24.51;44.53
39275;BME280;24980;48.874;2.332;2023-05-23T12:03:09;101756.22;;;24.49;44.56
39275;BME280;24980;48.874;2.332;2023-05-23T12:05:41;101762.92;;;24.49;44.58
39275;BME280;24980;48.874;2.332;2023-05-23T12:08:12;101760.62;;;24.49;44.62
39275;BME280;24980;48.874;2.332;2023-05-23T12:10:55;101761.73;;;24.47;44.64
39275;BME280;24980;48.874;2.332;2023-05-23T12:13:11;101763.59;;;24.47;44.65
39275;BME280;24980;48.874;2.332;2023-05-23T12:15:41;101758.38;;;24.46;44.66
39275;BME280;24980;48.874;2.332;2023-05-23T12:18:11;101751.85;;;24.45;44.67
39275;BME280;24980;48.874;2.332;2023-05-23T12:20:41;101758.80;;;24.45;44.68
39275;BME280;24980;48.874;2.332;2023-05-23T12:23:20;101750.75;;;24.44;44.68
39275;BME280;24980;48.874;2.332;2023-05-23T12:25:42;101746.42;;;24.45;44.68
39275;BME280;24980;48.874;2.332;2023-05-23T12:28:15;101746.77;;;24.45;44.68
39275;BME280;24980;48.874;2.332;2023-05-23T12:30:42;101744.73;;;24.45;44.68
39275;BME280;24980;48.874;2.332;2023-05-23T12:33:13;101740.23;;;24.45;44.70
39275;BME280;24980;48.874;2.332;2023-05-23T12:35:43;101732.19;;;24.45;44.70
39275;BME280;24980;48.874;2.332;2023-05-23T12:38:14;101733.45;;;24.46;44.73
39275;BME280;24980;48.874;2.332;2023-05-23T12:40:47;101727.61;;;24.46;44.75
39275;BME280;24980;48.874;2.332;2023-05-23T12:43:14;101728.62;;;24.46;44.76
39275;BME280;24980;48.874;2.332;2023-05-23T12:45:45;101728.46;;;24.47;44.77
39275;BME280;24980;48.874;2.332;2023-05-23T12:48:15;101723.12;;;24.46;44.79
39275;BME280;24980;48.874;2.332;2023-05-23T12:50:45;101729.56;;;24.46;44.82
39275;BME280;24980;48.874;2.332;2023-05-23T12:53:15;101726.48;;;24.47;44.85
39275;BME280;24980;48.874;2.332;2023-05-23T12:55:45;101723.00;;;24.47;44.87
39275;BME280;24980;48.874;2.332;2023-05-23T12:58:16;101719.61;;;24.48;44.89
39275;BME280;24980;48.874;2.332;2023-05-23T13:00:46;101720.80;;;24.50;44.91
39275;BME280;24980;48.874;2.332;2023-05-23T13:03:17;101719.16;;;24.51;44.92
39275;BME280;24980;48.874;2.332;2023-05-23T13:05:47;101715.85;;;24.52;44.91
39275;BME280;24980;48.874;2.332;2023-05-23T13:08:17;101718.31;;;24.52;44.92
39275;BME280;24980;48.874;2.332;2023-05-23T13:13:18;101713.22;;;24.52;44.96
39275;BME280;24980;48.874;2.332;2023-05-23T13:15:48;101712.80;;;24.52;44.98
39275;BME280;24980;48.874;2.332;2023-05-23T13:18:18;101708.05;;;24.53;45.00
39275;BME280;24980;48.874;2.332;2023-05-23T13:20:48;101708.36;;;24.53;45.02
39275;BME280;24980;48.874;2.332;2023-05-23T13:23:19;101705.81;;;24.54;45.03
39275;BME280;24980;48.874;2.332;2023-05-23T13:25:49;101701.41;;;24.55;45.04
39275;BME280;24980;48.874;2.332;2023-05-23T13:28:19;101711.58;;;24.55;45.05